createdAt,value
2023-01-29T00:01:20.200Z,82.07
2023-01-29T00:03:46.675Z,81.49
2023-01-29T00:06:13.131Z,81.59
2023-01-29T00:08:39.723Z,81.78
2023-01-29T00:11:08.305Z,82.18
2023-01-29T00:13:34.994Z,81.47
2023-01-29T00:16:02.233Z,83.03
2023-01-29T00:18:29.296Z,83.01
2023-01-29T00:20:55.824Z,83.31
2023-01-29T00:23:22.753Z,82.86
2023-01-29T00:25:49.480Z,82.86
2023-01-29T00:28:16.380Z,83.41
2023-01-29T00:30:42.782Z,83.66
2023-01-29T00:33:09.260Z,83.73
2023-01-29T00:35:36.027Z,83.99
2023-01-29T00:38:02.477Z,83.75
2023-01-29T00:40:28.848Z,83.54
2023-01-29T00:42:55.285Z,83.63
2023-01-29T00:45:21.981Z,83.92
2023-01-29T00:47:48.388Z,83.84
2023-01-29T00:50:15.184Z,83.65
2023-01-29T00:52:42.735Z,84.54
2023-01-29T00:55:10.771Z,84.94
2023-01-29T00:57:38.053Z,84.49
2023-01-29T01:00:08.052Z,84.80
2023-01-29T01:02:34.716Z,85.22
2023-01-29T01:05:01.203Z,84.93
2023-01-29T01:07:28.107Z,84.71
2023-01-29T01:09:54.575Z,85.01
2023-01-29T01:12:21.306Z,83.46
2023-01-29T01:14:48.370Z,83.83
2023-01-29T01:17:17.698Z,83.38
2023-01-29T01:19:44.544Z,83.41
2023-01-29T01:22:10.967Z,83.38
2023-01-29T01:24:37.979Z,83.97
2023-01-29T01:27:04.855Z,84.16
2023-01-29T01:29:31.391Z,84.30
2023-01-29T01:31:57.893Z,84.71
2023-01-29T01:34:24.341Z,83.65
2023-01-29T01:36:50.817Z,84.00
2023-01-29T01:39:17.237Z,83.01
2023-01-29T01:41:43.797Z,83.67
2023-01-29T01:44:48.095Z,83.65
2023-01-29T01:47:16.658Z,82.87
2023-01-29T01:49:45.076Z,83.20
2023-01-29T01:52:13.332Z,82.84
2023-01-29T01:54:39.951Z,82.19
2023-01-29T01:57:11.650Z,83.07
2023-01-29T01:59:40.277Z,83.07
2023-01-29T02:02:07.648Z,83.11
2023-01-29T02:04:34.741Z,84.39
2023-01-29T02:07:04.530Z,83.98
2023-01-29T02:09:46.211Z,84.29
2023-01-29T02:12:15.977Z,83.33
2023-01-29T02:14:43.945Z,83.43
2023-01-29T02:17:14.041Z,82.67
2023-01-29T02:20:08.466Z,82.86
2023-01-29T02:22:46.856Z,82.43
2023-01-29T02:25:16.252Z,84.32
2023-01-29T02:27:58.246Z,83.99
2023-01-29T02:30:36.219Z,83.34
2023-01-29T02:33:44.641Z,82.25
2023-01-29T02:36:29.683Z,82.89
2023-01-29T02:38:55.992Z,82.40
2023-01-29T02:41:42.523Z,81.74
2023-01-29T02:44:21.397Z,81.82
2023-01-29T02:46:56.232Z,82.58
2023-01-29T02:49:36.028Z,82.83
2023-01-29T02:52:12.569Z,83.20
2023-01-29T02:55:00.815Z,83.07
2023-01-29T02:57:32.886Z,82.83
2023-01-29T03:00:05.700Z,83.31
2023-01-29T03:02:45.545Z,83.21
2023-01-29T03:05:18.033Z,83.88
2023-01-29T03:07:54.592Z,84.15
2023-01-29T03:10:39.099Z,84.53
2023-01-29T03:13:19.872Z,83.63
2023-01-29T03:15:55.182Z,83.68
2023-01-29T03:18:25.082Z,84.58
2023-01-29T03:20:57.701Z,85.17
2023-01-29T03:23:31.956Z,84.85
2023-01-29T03:25:59.739Z,85.43
2023-01-29T03:28:28.253Z,85.22
2023-01-29T03:30:58.647Z,85.42
2023-01-29T03:33:31.766Z,85.71
2023-01-29T03:36:14.759Z,85.47
2023-01-29T03:38:41.350Z,85.51
2023-01-29T03:41:17.906Z,85.37
2023-01-29T03:43:54.963Z,85.70
2023-01-29T03:46:21.341Z,86.20
2023-01-29T03:49:15.334Z,86.62
2023-01-29T03:52:13.499Z,86.89
2023-01-29T03:55:17.542Z,85.85
2023-01-29T03:58:00.048Z,86.35
2023-01-29T04:00:45.035Z,85.00
2023-01-29T04:03:26.450Z,85.31
2023-01-29T04:06:11.483Z,85.40
2023-01-29T04:08:51.425Z,86.05
2023-01-29T04:11:22.171Z,85.40
2023-01-29T04:13:49.206Z,86.31
2023-01-29T04:16:27.204Z,86.05
2023-01-29T04:18:55.045Z,85.05
2023-01-29T04:21:21.959Z,85.38
2023-01-29T04:23:48.382Z,85.50
2023-01-29T04:26:29.067Z,85.10
2023-01-29T04:29:20.213Z,84.20
2023-01-29T04:32:00.736Z,84.66
2023-01-29T04:34:53.402Z,84.87
2023-01-29T04:37:33.161Z,85.11
2023-01-29T04:40:09.023Z,85.25
2023-01-29T04:43:02.161Z,83.83
2023-01-29T04:45:34.797Z,84.14
2023-01-29T04:48:20.355Z,85.48
2023-01-29T04:50:59.519Z,83.80
2023-01-29T04:53:37.410Z,84.92
2023-01-29T04:56:23.789Z,84.33
2023-01-29T04:58:57.154Z,84.08
2023-01-29T05:01:28.142Z,84.71
2023-01-29T05:03:56.404Z,84.31
2023-01-29T05:06:24.097Z,84.78
2023-01-29T05:08:51.574Z,85.51
2023-01-29T05:11:19.867Z,85.32
2023-01-29T05:13:48.717Z,84.98
2023-01-29T05:16:21.946Z,84.14
2023-01-29T05:18:48.678Z,83.64
2023-01-29T05:21:15.498Z,83.18
2023-01-29T05:23:42.117Z,82.85
2023-01-29T05:26:08.511Z,83.88
2023-01-29T05:28:35.584Z,84.21
2023-01-29T05:31:02.164Z,84.04
2023-01-29T05:33:31.205Z,83.92
2023-01-29T05:35:59.464Z,83.83
2023-01-29T05:38:28.503Z,84.39
2023-01-29T05:40:55.089Z,84.53
2023-01-29T05:43:24.293Z,83.86
2023-01-29T05:45:58.844Z,83.74
2023-01-29T05:48:26.736Z,83.81
2023-01-29T05:50:53.121Z,84.50
2023-01-29T05:53:19.747Z,83.54
2023-01-29T05:55:47.785Z,83.18
2023-01-29T05:58:14.848Z,84.14
2023-01-29T06:00:41.976Z,83.51
2023-01-29T06:03:08.554Z,82.90
2023-01-29T06:05:38.542Z,82.74
2023-01-29T06:08:06.691Z,83.46
2023-01-29T06:10:36.142Z,83.67
2023-01-29T06:13:02.966Z,84.00
2023-01-29T06:15:29.394Z,82.95
2023-01-29T06:17:57.322Z,83.00
2023-01-29T06:20:24.882Z,83.58
2023-01-29T06:22:51.323Z,82.58
2023-01-29T06:25:17.998Z,82.43
2023-01-29T06:27:44.362Z,82.10
2023-01-29T06:30:11.389Z,82.17
2023-01-29T06:32:38.387Z,82.81
2023-01-29T06:35:05.402Z,82.37
2023-01-29T06:37:31.917Z,81.96
2023-01-29T06:39:58.560Z,82.70
2023-01-29T06:42:24.926Z,81.97
2023-01-29T06:44:51.452Z,82.02
2023-01-29T06:47:18.100Z,82.61
2023-01-29T06:49:44.505Z,80.89
2023-01-29T06:52:10.934Z,81.38
2023-01-29T06:54:37.239Z,81.98
2023-01-29T06:57:03.940Z,81.77
2023-01-29T06:59:30.492Z,81.79
2023-01-29T07:01:56.905Z,82.66
2023-01-29T07:04:23.376Z,81.83
2023-01-29T07:06:49.744Z,82.41
2023-01-29T07:09:16.389Z,82.29
2023-01-29T07:11:42.732Z,81.67
2023-01-29T07:14:09.472Z,82.62
2023-01-29T07:16:35.845Z,82.19
2023-01-29T07:19:02.324Z,82.33
2023-01-29T07:21:28.937Z,81.78
2023-01-29T07:23:55.791Z,82.14
2023-01-29T07:26:23.485Z,81.82
2023-01-29T07:28:50.157Z,80.94
2023-01-29T07:31:16.732Z,82.39
2023-01-29T07:33:44.142Z,81.23
2023-01-29T07:36:11.739Z,81.24
2023-01-29T07:38:38.315Z,80.54
2023-01-29T07:41:05.011Z,80.79
2023-01-29T07:43:31.607Z,81.21
2023-01-29T07:46:02.456Z,82.02
2023-01-29T07:48:29.016Z,81.83
2023-01-29T07:50:57.101Z,82.05
2023-01-29T07:55:58.877Z,81.14
2023-01-29T08:01:06.194Z,81.87
2023-01-29T08:03:32.558Z,81.56
2023-01-29T08:05:58.937Z,81.31
2023-01-29T08:08:25.337Z,80.60
2023-01-29T08:10:51.889Z,81.24
2023-01-29T08:13:18.341Z,80.74
2023-01-29T08:15:47.538Z,80.48
2023-01-29T08:18:14.515Z,81.16
2023-01-29T08:20:41.020Z,80.85
2023-01-29T08:23:13.428Z,79.92
2023-01-29T08:25:41.847Z,80.75
2023-01-29T08:28:08.490Z,80.37
2023-01-29T08:30:35.760Z,80.62
2023-01-29T08:33:04.248Z,80.14
2023-01-29T08:35:31.330Z,80.76
2023-01-29T08:38:02.948Z,80.36
2023-01-29T08:40:34.384Z,80.30
2023-01-29T08:43:08.650Z,80.84
2023-01-29T08:45:39.274Z,80.46
2023-01-29T08:48:06.869Z,79.61
2023-01-29T08:50:35.069Z,79.48
2023-01-29T08:53:04.464Z,79.94
2023-01-29T09:00:46.352Z,78.79
2023-01-29T09:03:13.259Z,80.19
2023-01-29T09:08:21.696Z,79.34
2023-01-29T09:10:48.246Z,80.14
2023-01-29T09:13:14.673Z,79.74
2023-01-29T09:15:41.326Z,79.35
2023-01-29T09:20:58.193Z,78.85
2023-01-29T09:23:24.633Z,78.53
2023-01-29T09:25:51.476Z,79.62
2023-01-29T09:30:52.956Z,78.19
2023-01-29T09:33:19.391Z,78.50
2023-01-29T09:35:46.415Z,79.05
2023-01-29T09:38:13.496Z,77.94
2023-01-29T09:41:02.175Z,77.67
2023-01-29T09:43:47.203Z,77.65
2023-01-29T09:46:25.438Z,76.82
2023-01-29T09:49:00.836Z,76.42
2023-01-29T09:51:35.261Z,76.29
2023-01-29T09:54:17.861Z,77.35
2023-01-29T09:56:45.817Z,77.20
2023-01-29T09:59:14.217Z,77.12
2023-01-29T10:01:58.579Z,76.85
2023-01-29T10:04:52.660Z,76.35
2023-01-29T10:07:48.326Z,76.44
2023-01-29T10:10:42.001Z,76.63
2023-01-29T10:13:40.528Z,77.05
2023-01-29T10:16:19.179Z,76.38
2023-01-29T10:19:14.716Z,75.89
2023-01-29T10:22:18.765Z,75.76
2023-01-29T10:24:53.944Z,76.04
2023-01-29T10:27:20.349Z,76.98
2023-01-29T10:29:51.337Z,75.78
2023-01-29T10:32:21.873Z,75.91
2023-01-29T10:34:56.823Z,76.12
2023-01-29T10:37:30.839Z,76.55
2023-01-29T10:40:00.475Z,76.69
2023-01-29T10:42:43.052Z,77.82
2023-01-29T10:45:26.334Z,76.82
2023-01-29T10:48:38.891Z,76.97
2023-01-29T10:51:24.901Z,76.97
2023-01-29T10:54:04.356Z,77.18
2023-01-29T11:02:16.145Z,75.95
2023-01-29T11:04:42.741Z,75.76
2023-01-29T11:07:12.673Z,76.61
2023-01-29T11:10:00.460Z,76.27
2023-01-29T11:12:31.392Z,76.42
2023-01-29T11:15:14.753Z,75.75
2023-01-29T11:18:01.381Z,76.39
2023-01-29T11:20:28.917Z,76.15
2023-01-29T11:22:55.604Z,75.74
2023-01-29T11:25:24.296Z,77.34
2023-01-29T11:27:57.406Z,76.52
2023-01-29T11:30:25.590Z,76.49
2023-01-29T11:33:06.854Z,75.91
2023-01-29T11:35:41.464Z,76.37
2023-01-29T11:38:18.576Z,75.94
2023-01-29T11:40:45.615Z,76.39
2023-01-29T11:43:26.455Z,75.78
2023-01-29T11:45:56.079Z,76.83
2023-01-29T11:48:32.091Z,77.11
2023-01-29T11:51:01.267Z,77.03
2023-01-29T11:53:38.557Z,76.90
2023-01-29T11:56:42.922Z,77.67
2023-01-29T11:59:36.556Z,77.13
2023-01-29T12:02:14.771Z,78.31
2023-01-29T12:04:41.357Z,77.42
2023-01-29T12:07:16.062Z,77.40
2023-01-29T12:09:58.064Z,77.37
2023-01-29T12:12:28.919Z,77.15
2023-01-29T12:15:16.709Z,77.20
2023-01-29T12:17:50.610Z,78.04
2023-01-29T12:20:26.830Z,77.65
2023-01-29T12:23:12.087Z,78.29
2023-01-29T12:26:10.359Z,78.12
2023-01-29T12:28:55.004Z,78.14
2023-01-29T12:31:37.851Z,78.92
2023-01-29T12:34:45.512Z,79.01
2023-01-29T12:37:20.986Z,79.49
2023-01-29T12:39:50.100Z,79.06
2023-01-29T12:42:24.227Z,78.27
2023-01-29T12:44:59.717Z,78.93
2023-01-29T12:47:28.788Z,79.04
2023-01-29T12:50:03.422Z,78.06
2023-01-29T12:52:42.236Z,79.05
2023-01-29T12:55:27.864Z,79.11
2023-01-29T12:57:59.999Z,78.75
2023-01-29T13:00:33.817Z,79.57
2023-01-29T13:03:27.586Z,79.85
2023-01-29T13:06:02.567Z,79.41
2023-01-29T13:08:47.502Z,79.41
2023-01-29T13:11:25.388Z,79.29
2023-01-29T13:14:26.355Z,79.88
2023-01-29T13:17:02.502Z,78.94
2023-01-29T13:19:35.014Z,79.77
2023-01-29T13:22:04.942Z,80.03
2023-01-29T13:24:40.543Z,79.67
2023-01-29T13:27:07.405Z,79.62
2023-01-29T13:29:34.093Z,80.01
2023-01-29T13:32:04.462Z,80.26
2023-01-29T13:34:33.692Z,79.34
2023-01-29T13:37:12.950Z,79.11
2023-01-29T13:39:46.295Z,79.36
2023-01-29T13:42:19.068Z,78.94
2023-01-29T13:44:51.637Z,78.86
2023-01-29T13:47:26.654Z,78.86
2023-01-29T13:50:07.404Z,79.08
2023-01-29T13:52:36.770Z,78.48
2023-01-29T13:55:15.559Z,78.31
2023-01-29T13:57:45.260Z,78.99
2023-01-29T14:00:20.723Z,78.99
2023-01-29T14:03:07.013Z,79.26
2023-01-29T14:05:39.541Z,79.60
2023-01-29T14:08:09.393Z,78.63
2023-01-29T14:10:37.796Z,78.65
2023-01-29T14:13:04.082Z,79.59
2023-01-29T14:15:32.520Z,79.15
2023-01-29T14:18:18.055Z,79.45
2023-01-29T14:20:47.741Z,79.49
2023-01-29T14:23:57.604Z,78.81
2023-01-29T14:26:30.189Z,79.00
2023-01-29T14:28:59.649Z,79.48
2023-01-29T14:31:37.468Z,80.29
2023-01-29T14:34:13.945Z,79.38
2023-01-29T14:36:45.555Z,79.53
2023-01-29T14:39:48.758Z,79.49
2023-01-29T14:42:26.836Z,78.78
2023-01-29T14:45:22.722Z,79.63
2023-01-29T14:47:49.186Z,79.45
2023-01-29T14:50:18.872Z,79.83
2023-01-29T14:52:47.935Z,80.11
2023-01-29T14:55:31.133Z,79.85
2023-01-29T14:57:59.006Z,80.30
2023-01-29T15:00:33.213Z,80.01
2023-01-29T15:03:02.565Z,80.13
2023-01-29T15:05:32.768Z,80.24
2023-01-29T15:08:15.820Z,80.42
2023-01-29T15:10:45.597Z,80.83
2023-01-29T15:13:37.941Z,79.87
2023-01-29T15:16:25.622Z,80.39
2023-01-29T15:18:57.178Z,79.75
2023-01-29T15:21:23.599Z,80.27
2023-01-29T15:24:04.469Z,80.95
2023-01-29T15:26:31.186Z,80.66
2023-01-29T15:29:04.642Z,80.65
2023-01-29T15:31:32.093Z,80.84
2023-01-29T15:34:04.506Z,80.69
2023-01-29T15:36:32.304Z,80.60
2023-01-29T15:39:21.565Z,80.93
2023-01-29T15:41:48.669Z,81.40
2023-01-29T15:44:18.177Z,81.16
2023-01-29T15:46:51.144Z,81.19
2023-01-29T15:49:30.898Z,81.50
2023-01-29T15:52:00.301Z,80.71
2023-01-29T15:54:31.084Z,81.24
2023-01-29T15:56:57.685Z,81.58
2023-01-29T15:59:29.194Z,81.50
2023-01-29T16:01:55.717Z,81.32
2023-01-29T16:04:26.796Z,81.58
2023-01-29T16:06:54.446Z,81.50
2023-01-29T16:09:24.837Z,81.09
2023-01-29T16:11:53.037Z,82.09
2023-01-29T16:14:24.339Z,81.36
2023-01-29T16:16:51.457Z,81.42
2023-01-29T16:19:29.754Z,81.33
2023-01-29T16:22:02.397Z,82.67
2023-01-29T16:24:31.223Z,82.70
2023-01-29T16:27:00.680Z,83.38
2023-01-29T16:29:32.557Z,84.02
2023-01-29T16:32:01.277Z,84.01
2023-01-29T16:34:36.336Z,84.39
2023-01-29T16:37:06.542Z,84.02
2023-01-29T16:39:36.633Z,84.41
2023-01-29T16:42:12.251Z,84.86
2023-01-29T16:44:46.899Z,85.41
2023-01-29T16:47:20.415Z,86.30
2023-01-29T16:49:50.897Z,86.58
2023-01-29T16:52:35.452Z,86.63
2023-01-29T16:55:19.839Z,86.70
2023-01-29T16:57:52.507Z,86.76
2023-01-29T17:00:28.274Z,87.56
2023-01-29T17:03:00.345Z,88.33
2023-01-29T17:05:31.487Z,88.39
2023-01-29T17:08:00.247Z,88.03
2023-01-29T17:10:29.044Z,87.55
2023-01-29T17:13:03.237Z,87.49
2023-01-29T17:15:33.561Z,88.40
2023-01-29T17:18:00.234Z,87.68
2023-01-29T17:20:27.786Z,88.01
2023-01-29T17:22:54.595Z,87.72
2023-01-29T17:25:21.347Z,86.83
2023-01-29T17:27:47.951Z,87.26
2023-01-29T17:30:16.709Z,87.30
2023-01-29T17:32:44.970Z,87.00
2023-01-29T17:35:16.649Z,87.02
2023-01-29T17:37:44.894Z,86.55
2023-01-29T17:40:50.128Z,86.57
2023-01-29T17:43:16.685Z,86.76
2023-01-29T17:45:43.339Z,85.95
2023-01-29T17:48:27.734Z,86.29
2023-01-29T17:50:57.028Z,85.16
2023-01-29T17:53:26.555Z,85.06
2023-01-29T17:55:57.009Z,85.18
2023-01-29T17:58:28.559Z,85.03
2023-01-29T18:00:56.531Z,84.61
2023-01-29T18:03:23.913Z,85.14
2023-01-29T18:05:51.995Z,84.83
2023-01-29T18:08:31.878Z,84.55
2023-01-29T18:10:58.725Z,84.60
2023-01-29T18:13:27.501Z,84.77
2023-01-29T18:15:54.214Z,85.87
2023-01-29T18:18:25.543Z,85.85
2023-01-29T18:20:51.980Z,85.66
2023-01-29T18:23:18.503Z,85.35
2023-01-29T18:25:45.947Z,85.14
2023-01-29T18:28:16.800Z,85.64
2023-01-29T18:30:47.612Z,84.96
2023-01-29T18:33:16.149Z,85.07
2023-01-29T18:35:48.439Z,85.09
2023-01-29T18:38:14.889Z,85.62
2023-01-29T18:40:41.451Z,85.93
2023-01-29T18:43:08.000Z,86.29
2023-01-29T18:45:34.591Z,85.72
2023-01-29T18:48:01.321Z,86.00
2023-01-29T18:50:27.966Z,85.46
2023-01-29T18:52:55.654Z,85.55
2023-01-29T18:55:22.396Z,86.10
2023-01-29T18:58:25.118Z,85.41
2023-01-29T19:00:42.072Z,85.60
2023-01-29T19:03:08.540Z,85.82
2023-01-29T19:05:34.938Z,85.71
2023-01-29T19:08:01.256Z,85.82
2023-01-29T19:10:27.643Z,85.84
2023-01-29T19:12:53.969Z,85.73
2023-01-29T19:15:20.331Z,86.06
2023-01-29T19:17:46.675Z,85.96
2023-01-29T19:20:13.145Z,86.70
2023-01-29T19:22:39.938Z,86.07
2023-01-29T19:25:06.867Z,86.41
2023-01-29T19:27:33.358Z,86.69
2023-01-29T19:29:59.885Z,86.26
2023-01-29T19:32:26.766Z,86.34
2023-01-29T19:34:53.092Z,86.52
2023-01-29T19:37:19.397Z,85.98
2023-01-29T19:39:46.041Z,86.66
2023-01-29T19:42:12.432Z,86.59
2023-01-29T19:44:38.791Z,86.89
2023-01-29T19:47:05.387Z,86.74
2023-01-29T19:49:31.693Z,86.95
2023-01-29T19:51:58.015Z,87.35
2023-01-29T19:54:24.983Z,87.24
2023-01-29T19:56:51.361Z,87.16
2023-01-29T19:59:17.728Z,88.03
2023-01-29T20:01:44.325Z,87.15
2023-01-29T20:04:10.985Z,87.27
2023-01-29T20:06:37.488Z,87.19
2023-01-29T20:09:04.283Z,87.23
2023-01-29T20:11:31.433Z,87.72
2023-01-29T20:13:58.233Z,87.59
2023-01-29T20:16:25.697Z,87.30
2023-01-29T20:18:52.509Z,87.13
2023-01-29T20:21:20.639Z,87.65
2023-01-29T20:23:50.069Z,87.08
2023-01-29T20:26:17.442Z,87.78
2023-01-29T20:28:46.181Z,87.15
2023-01-29T20:31:12.685Z,88.12
2023-01-29T20:33:39.812Z,87.56
2023-01-29T20:36:08.588Z,87.95
2023-01-29T20:38:34.953Z,88.32
2023-01-29T20:41:14.591Z,88.05
2023-01-29T20:43:42.238Z,88.58
2023-01-29T20:46:09.052Z,88.52
2023-01-29T20:48:36.390Z,88.07
2023-01-29T20:51:06.488Z,88.22
2023-01-29T20:53:32.815Z,88.78
2023-01-29T20:55:59.240Z,88.15
2023-01-29T20:58:25.871Z,88.57
2023-01-29T21:00:52.363Z,89.18
2023-01-29T21:03:19.921Z,88.48
2023-01-29T21:05:46.267Z,88.87
2023-01-29T21:08:12.642Z,89.46
2023-01-29T21:10:38.962Z,88.89
2023-01-29T21:13:05.338Z,90.36
2023-01-29T21:15:31.690Z,89.74
2023-01-29T21:17:58.058Z,89.45
2023-01-29T21:20:24.383Z,90.57
2023-01-29T21:22:50.665Z,90.47
2023-01-29T21:25:17.049Z,90.83
2023-01-29T21:27:43.381Z,90.78
2023-01-29T21:30:12.416Z,91.03
2023-01-29T21:32:38.862Z,90.54
2023-01-29T21:35:05.765Z,90.83
2023-01-29T21:37:32.164Z,90.91
2023-01-29T21:39:58.517Z,91.27
2023-01-29T21:42:24.869Z,91.23
2023-01-29T21:44:51.238Z,91.58
2023-01-29T21:47:17.769Z,91.80
2023-01-29T21:49:44.729Z,91.85
2023-01-29T21:52:12.770Z,91.91
2023-01-29T21:54:39.711Z,92.32
2023-01-29T21:57:11.009Z,92.17
2023-01-29T21:59:37.381Z,92.67
2023-01-29T22:02:03.984Z,92.88
2023-01-29T22:04:30.418Z,92.59
2023-01-29T22:06:56.783Z,92.46
2023-01-29T22:09:23.173Z,92.69
2023-01-29T22:11:49.796Z,93.02
2023-01-29T22:14:16.153Z,92.84
2023-01-29T22:16:42.603Z,92.81
2023-01-29T22:19:08.941Z,92.71
2023-01-29T22:21:36.005Z,92.21
2023-01-29T22:24:02.453Z,93.28
2023-01-29T22:26:28.815Z,92.81
2023-01-29T22:28:55.378Z,93.13
2023-01-29T22:31:21.763Z,92.62
2023-01-29T22:33:48.207Z,92.95
2023-01-29T22:36:14.666Z,93.36
2023-01-29T22:38:44.204Z,92.62
2023-01-29T22:41:10.951Z,92.86
2023-01-29T22:43:37.381Z,93.33
2023-01-29T22:46:11.360Z,92.88
2023-01-29T22:48:37.683Z,93.54
2023-01-29T22:51:04.389Z,93.18
2023-01-29T22:53:30.691Z,93.30
2023-01-29T22:55:57.454Z,93.48
2023-01-29T22:58:23.743Z,93.75
2023-01-29T23:00:50.721Z,93.36
2023-01-29T23:03:17.370Z,93.92
2023-01-29T23:05:43.700Z,94.09
2023-01-29T23:08:10.049Z,93.35
2023-01-29T23:10:36.403Z,93.64
2023-01-29T23:13:02.744Z,93.68
2023-01-29T23:15:29.128Z,93.75
2023-01-29T23:17:55.548Z,93.95
2023-01-29T23:20:21.850Z,93.62
2023-01-29T23:22:49.263Z,93.73
2023-01-29T23:25:16.438Z,93.75
2023-01-29T23:27:42.792Z,93.98
2023-01-29T23:30:09.658Z,94.84
2023-01-29T23:32:36.362Z,94.54
2023-01-29T23:35:02.712Z,94.19
2023-01-29T23:37:29.063Z,94.39
2023-01-29T23:39:55.422Z,93.92
2023-01-29T23:42:22.972Z,93.69
2023-01-29T23:44:49.346Z,94.46
2023-01-29T23:47:15.747Z,94.28
2023-01-29T23:49:42.183Z,94.01
2023-01-29T23:52:08.545Z,94.48
2023-01-29T23:54:34.905Z,94.29
2023-01-29T23:57:01.234Z,94.25
2023-01-29T23:59:27.734Z,94.29
